sensor_id;sensor_type;location;lat;lon;timestamp;temperature;humidity
47162;DHT22;32921;53.256;8.198;2023-09-19T02:05:29;15.60;99.90
47162;DHT22;32921;53.256;8.198;2023-09-19T02:07:55;14.40;99.90
47162;DHT22;32921;53.256;8.198;2023-09-19T02:10:22;14.30;99.90
47162;DHT22;32921;53.256;8.198;2023-09-19T02:12:48;14.30;99.90
47162;DHT22;32921;53.256;8.198;2023-09-19T02:15:15;14.20;99.90
47162;DHT22;32921;53.256;8.198;2023-09-19T02:17:42;14.20;99.90
47162;DHT22;32921;53.256;8.198;2023-09-19T02:20:09;14.30;99.90
47162;DHT22;32921;53.256;8.198;2023-09-19T02:22:35;14.30;99.90
47162;DHT22;32921;53.256;8.198;2023-09-19T02:25:01;14.20;99.90
47162;DHT22;32921;53.256;8.198;2023-09-19T02:27:27;14.20;99.90
47162;DHT22;32921;53.256;8.198;2023-09-19T02:29:52;14.20;99.90
47162;DHT22;32921;53.256;8.198;2023-09-19T02:32:18;14.20;99.90
47162;DHT22;32921;53.256;8.198;2023-09-19T02:34:44;14.10;99.90
47162;DHT22;32921;53.256;8.198;2023-09-19T02:37:10;14.10;99.90
47162;DHT22;32921;53.256;8.198;2023-09-19T02:39:36;14.00;99.90
47162;DHT22;32921;53.256;8.198;2023-09-19T02:42:02;14.00;99.90
47162;DHT22;32921;53.256;8.198;2023-09-19T02:44:29;13.90;99.90
47162;DHT22;32921;53.256;8.198;2023-09-19T02:46:55;13.70;99.90
47162;DHT22;32921;53.256;8.198;2023-09-19T02:49:22;13.70;99.90
47162;DHT22;32921;53.256;8.198;2023-09-19T02:51:47;13.70;99.90
47162;DHT22;32921;53.256;8.198;2023-09-19T02:54:13;13.80;99.90
47162;DHT22;32921;53.256;8.198;2023-09-19T02:56:39;13.70;99.90
47162;DHT22;32921;53.256;8.198;2023-09-19T02:59:04;13.70;99.90
47162;DHT22;32921;53.256;8.198;2023-09-19T03:01:31;13.60;99.90
47162;DHT22;32921;53.256;8.198;2023-09-19T03:03:57;13.60;99.90
47162;DHT22;32921;53.256;8.198;2023-09-19T03:06:23;13.60;99.90
47162;DHT22;32921;53.256;8.198;2023-09-19T03:08:49;13.50;99.90
47162;DHT22;32921;53.256;8.198;2023-09-19T03:11:17;13.60;99.90
47162;DHT22;32921;53.256;8.198;2023-09-19T03:13:51;13.60;99.90
47162;DHT22;32921;53.256;8.198;2023-09-19T03:16:16;13.60;99.90
47162;DHT22;32921;53.256;8.198;2023-09-19T03:18:42;13.40;99.90
47162;DHT22;32921;53.256;8.198;2023-09-19T03:21:07;13.40;99.90
47162;DHT22;32921;53.256;8.198;2023-09-19T03:23:33;13.40;99.90
47162;DHT22;32921;53.256;8.198;2023-09-19T03:25:59;13.30;99.90
47162;DHT22;32921;53.256;8.198;2023-09-19T03:28:24;13.30;99.90
47162;DHT22;32921;53.256;8.198;2023-09-19T03:31:05;13.30;99.90
47162;DHT22;32921;53.256;8.198;2023-09-19T03:33:31;13.30;99.90
47162;DHT22;32921;53.256;8.198;2023-09-19T03:35:58;13.30;99.90
47162;DHT22;32921;53.256;8.198;2023-09-19T03:38:25;13.30;99.90
47162;DHT22;32921;53.256;8.198;2023-09-19T03:40:50;13.30;99.90
47162;DHT22;32921;53.256;8.198;2023-09-19T03:43:16;13.20;99.90
47162;DHT22;32921;53.256;8.198;2023-09-19T03:45:41;13.30;99.90
47162;DHT22;32921;53.256;8.198;2023-09-19T03:48:11;13.30;99.90
47162;DHT22;32921;53.256;8.198;2023-09-19T07:36:22;13.30;99.90
47162;DHT22;32921;53.256;8.198;2023-09-19T07:38:49;15.80;99.90
47162;DHT22;32921;53.256;8.198;2023-09-19T07:41:15;15.80;99.90
47162;DHT22;32921;53.256;8.198;2023-09-19T07:43:40;15.80;99.90
47162;DHT22;32921;53.256;8.198;2023-09-19T07:46:07;15.80;99.90
47162;DHT22;32921;53.256;8.198;2023-09-19T07:48:37;15.90;99.90
47162;DHT22;32921;53.256;8.198;2023-09-19T07:51:07;16.20;99.90
47162;DHT22;32921;53.256;8.198;2023-09-19T07:53:34;16.40;99.90
47162;DHT22;32921;53.256;8.198;2023-09-19T07:56:04;16.60;99.90
47162;DHT22;32921;53.256;8.198;2023-09-19T07:58:30;16.70;99.90
47162;DHT22;32921;53.256;8.198;2023-09-19T08:01:01;16.90;99.90
47162;DHT22;32921;53.256;8.198;2023-09-19T08:03:27;16.90;99.90
47162;DHT22;32921;53.256;8.198;2023-09-19T08:05:52;16.90;99.90
47162;DHT22;32921;53.256;8.198;2023-09-19T08:08:18;17.00;99.90
47162;DHT22;32921;53.256;8.198;2023-09-19T08:10:44;16.90;99.90
47162;DHT22;32921;53.256;8.198;2023-09-19T08:13:11;16.80;99.90
47162;DHT22;32921;53.256;8.198;2023-09-19T08:15:43;16.80;99.90
47162;DHT22;32921;53.256;8.198;2023-09-19T08:18:09;16.60;99.90
47162;DHT22;32921;53.256;8.198;2023-09-19T08:20:38;16.70;99.90
47162;DHT22;32921;53.256;8.198;2023-09-19T08:23:03;16.90;99.90
47162;DHT22;32921;53.256;8.198;2023-09-19T08:25:29;16.90;99.90
47162;DHT22;32921;53.256;8.198;2023-09-19T08:27:55;16.90;99.90
47162;DHT22;32921;53.256;8.198;2023-09-19T08:30:24;17.20;99.90
47162;DHT22;32921;53.256;8.198;2023-09-19T08:33:02;17.70;99.90
47162;DHT22;32921;53.256;8.198;2023-09-19T08:35:30;17.90;99.90
47162;DHT22;32921;53.256;8.198;2023-09-19T08:37:55;17.80;99.90
47162;DHT22;32921;53.256;8.198;2023-09-19T08:40:22;18.00;99.90
47162;DHT22;32921;53.256;8.198;2023-09-19T08:42:55;18.10;99.90
47162;DHT22;32921;53.256;8.198;2023-09-19T08:45:21;18.30;99.90
47162;DHT22;32921;53.256;8.198;2023-09-19T08:48:16;18.30;99.90
47162;DHT22;32921;53.256;8.198;2023-09-19T08:51:10;18.10;99.90
47162;DHT22;32921;53.256;8.198;2023-09-19T08:53:40;18.00;99.90
47162;DHT22;32921;53.256;8.198;2023-09-19T08:56:10;18.00;99.90
47162;DHT22;32921;53.256;8.198;2023-09-19T08:58:47;17.70;99.90
47162;DHT22;32921;53.256;8.198;2023-09-19T09:01:15;17.80;99.90
47162;DHT22;32921;53.256;8.198;2023-09-19T09:03:43;17.90;99.90
47162;DHT22;32921;53.256;8.198;2023-09-19T09:06:14;18.00;99.90
47162;DHT22;32921;53.256;8.198;2023-09-19T09:08:41;18.20;99.90
47162;DHT22;32921;53.256;8.198;2023-09-19T09:11:07;18.20;99.90
47162;DHT22;32921;53.256;8.198;2023-09-19T09:13:35;18.30;99.90
47162;DHT22;32921;53.256;8.198;2023-09-19T09:16:01;18.60;99.90
47162;DHT22;32921;53.256;8.198;2023-09-19T09:18:28;18.40;99.90
47162;DHT22;32921;53.256;8.198;2023-09-19T09:20:57;18.40;99.90
47162;DHT22;32921;53.256;8.198;2023-09-19T09:23:22;18.50;99.90
47162;DHT22;32921;53.256;8.198;2023-09-19T09:25:53;18.70;99.90
47162;DHT22;32921;53.256;8.198;2023-09-19T09:28:27;18.40;99.90
47162;DHT22;32921;53.256;8.198;2023-09-19T09:30:54;18.40;99.90
47162;DHT22;32921;53.256;8.198;2023-09-19T09:33:20;18.60;99.90
47162;DHT22;32921;53.256;8.198;2023-09-19T09:35:59;18.60;99.90
47162;DHT22;32921;53.256;8.198;2023-09-19T09:38:47;18.50;99.90
47162;DHT22;32921;53.256;8.198;2023-09-19T09:41:36;18.60;99.90
47162;DHT22;32921;53.256;8.198;2023-09-19T09:44:13;18.80;99.90
47162;DHT22;32921;53.256;8.198;2023-09-19T09:46:43;19.00;99.90
47162;DHT22;32921;53.256;8.198;2023-09-19T09:49:26;19.30;99.90
47162;DHT22;32921;53.256;8.198;2023-09-19T09:52:02;19.40;99.90
47162;DHT22;32921;53.256;8.198;2023-09-19T09:54:34;19.30;99.90
47162;DHT22;32921;53.256;8.198;2023-09-19T09:57:08;19.30;99.90
47162;DHT22;32921;53.256;8.198;2023-09-19T10:02:13;19.20;99.90
47162;DHT22;32921;53.256;8.198;2023-09-19T10:04:39;19.00;99.90
47162;DHT22;32921;53.256;8.198;2023-09-19T10:07:28;18.90;99.90
47162;DHT22;32921;53.256;8.198;2023-09-19T10:09:59;18.90;99.90
47162;DHT22;32921;53.256;8.198;2023-09-19T10:12:31;18.90;99.90
47162;DHT22;32921;53.256;8.198;2023-09-19T10:15:02;19.10;99.90
47162;DHT22;32921;53.256;8.198;2023-09-19T10:17:29;19.00;99.90
47162;DHT22;32921;53.256;8.198;2023-09-19T10:19:57;18.70;99.90
47162;DHT22;32921;53.256;8.198;2023-09-19T10:22:26;18.80;99.90
47162;DHT22;32921;53.256;8.198;2023-09-19T10:24:53;19.30;99.90
47162;DHT22;32921;53.256;8.198;2023-09-19T10:27:20;19.60;99.90
47162;DHT22;32921;53.256;8.198;2023-09-19T10:29:49;19.70;99.90
47162;DHT22;32921;53.256;8.198;2023-09-19T10:32:19;20.00;99.90
47162;DHT22;32921;53.256;8.198;2023-09-19T10:34:50;20.20;99.90
47162;DHT22;32921;53.256;8.198;2023-09-19T10:37:20;20.40;99.90
47162;DHT22;32921;53.256;8.198;2023-09-19T10:39:51;20.30;99.90
47162;DHT22;32921;53.256;8.198;2023-09-19T10:42:19;20.50;99.90
47162;DHT22;32921;53.256;8.198;2023-09-19T10:44:51;20.30;99.90
47162;DHT22;32921;53.256;8.198;2023-09-19T10:47:19;20.00;99.90
47162;DHT22;32921;53.256;8.198;2023-09-19T10:49:46;20.00;99.90
47162;DHT22;32921;53.256;8.198;2023-09-19T10:52:18;20.20;99.90
47162;DHT22;32921;53.256;8.198;2023-09-19T10:54:52;20.30;99.90
47162;DHT22;32921;53.256;8.198;2023-09-19T10:57:24;19.80;99.90
47162;DHT22;32921;53.256;8.198;2023-09-19T11:00:16;20.00;99.90
47162;DHT22;32921;53.256;8.198;2023-09-19T11:05:40;21.20;96.70
47162;DHT22;32921;53.256;8.198;2023-09-19T11:08:09;20.50;97.30
47162;DHT22;32921;53.256;8.198;2023-09-19T11:10:47;20.50;96.60
47162;DHT22;32921;53.256;8.198;2023-09-19T11:13:30;21.10;94.70
47162;DHT22;32921;53.256;8.198;2023-09-19T11:16:04;21.60;94.80
47162;DHT22;32921;53.256;8.198;2023-09-19T11:26:44;20.90;93.20
47162;DHT22;32921;53.256;8.198;2023-09-19T11:29:28;21.10;92.40
47162;DHT22;32921;53.256;8.198;2023-09-19T11:31:55;20.90;92.90
47162;DHT22;32921;53.256;8.198;2023-09-19T11:37:03;20.40;92.80
47162;DHT22;32921;53.256;8.198;2023-09-19T11:39:31;20.20;95.30
47162;DHT22;32921;53.256;8.198;2023-09-19T11:41:58;19.90;94.80
47162;DHT22;32921;53.256;8.198;2023-09-19T11:46:55;21.60;93.20
47162;DHT22;32921;53.256;8.198;2023-09-19T11:49:31;21.60;91.40
47162;DHT22;32921;53.256;8.198;2023-09-19T11:52:00;20.80;92.10
47162;DHT22;32921;53.256;8.198;2023-09-19T11:54:33;21.10;92.80
47162;DHT22;32921;53.256;8.198;2023-09-19T11:57:01;21.30;92.00
47162;DHT22;32921;53.256;8.198;2023-09-19T11:59:29;21.20;91.10
47162;DHT22;32921;53.256;8.198;2023-09-19T12:02:06;21.70;91.40
47162;DHT22;32921;53.256;8.198;2023-09-19T12:04:44;22.80;87.60
47162;DHT22;32921;53.256;8.198;2023-09-19T12:07:14;23.40;84.60
47162;DHT22;32921;53.256;8.198;2023-09-19T12:09:41;23.30;82.20
47162;DHT22;32921;53.256;8.198;2023-09-19T12:12:28;22.50;84.10
47162;DHT22;32921;53.256;8.198;2023-09-19T12:14:54;22.40;86.60
47162;DHT22;32921;53.256;8.198;2023-09-19T12:17:22;22.80;82.30
47162;DHT22;32921;53.256;8.198;2023-09-19T12:19:53;22.60;83.10
47162;DHT22;32921;53.256;8.198;2023-09-19T12:22:19;22.60;83.20
47162;DHT22;32921;53.256;8.198;2023-09-19T12:24:48;22.40;84.00
47162;DHT22;32921;53.256;8.198;2023-09-19T12:27:14;21.90;84.20
47162;DHT22;32921;53.256;8.198;2023-09-19T12:29:47;21.80;86.10
47162;DHT22;32921;53.256;8.198;2023-09-19T12:32:16;21.80;86.20
47162;DHT22;32921;53.256;8.198;2023-09-19T12:34:44;22.30;86.40
47162;DHT22;32921;53.256;8.198;2023-09-19T12:37:15;22.70;82.90
47162;DHT22;32921;53.256;8.198;2023-09-19T12:39:46;22.50;82.70
47162;DHT22;32921;53.256;8.198;2023-09-19T12:42:16;22.60;81.70
47162;DHT22;32921;53.256;8.198;2023-09-19T12:44:43;23.20;81.60
47162;DHT22;32921;53.256;8.198;2023-09-19T12:47:15;22.80;81.80
47162;DHT22;32921;53.256;8.198;2023-09-19T12:50:07;23.20;82.10
47162;DHT22;32921;53.256;8.198;2023-09-19T12:52:42;22.60;82.50
47162;DHT22;32921;53.256;8.198;2023-09-19T12:55:20;22.50;83.10
47162;DHT22;32921;53.256;8.198;2023-09-19T12:58:07;22.30;85.80
47162;DHT22;32921;53.256;8.198;2023-09-19T13:00:38;21.30;89.50
47162;DHT22;32921;53.256;8.198;2023-09-19T13:03:29;21.50;90.20
47162;DHT22;32921;53.256;8.198;2023-09-19T13:06:03;21.60;90.10
47162;DHT22;32921;53.256;8.198;2023-09-19T13:08:35;21.60;88.90
47162;DHT22;32921;53.256;8.198;2023-09-19T13:11:07;21.40;87.80
47162;DHT22;32921;53.256;8.198;2023-09-19T13:13:41;21.40;90.30
47162;DHT22;32921;53.256;8.198;2023-09-19T13:16:08;21.30;91.10
47162;DHT22;32921;53.256;8.198;2023-09-19T13:18:44;21.00;91.70
47162;DHT22;32921;53.256;8.198;2023-09-19T13:21:13;20.50;92.40
47162;DHT22;32921;53.256;8.198;2023-09-19T13:23:52;20.60;92.50
47162;DHT22;32921;53.256;8.198;2023-09-19T13:26:19;20.60;91.70
47162;DHT22;32921;53.256;8.198;2023-09-19T13:28:45;20.50;94.00
47162;DHT22;32921;53.256;8.198;2023-09-19T13:31:13;20.70;93.40
47162;DHT22;32921;53.256;8.198;2023-09-19T13:33:43;20.90;93.30
47162;DHT22;32921;53.256;8.198;2023-09-19T13:36:10;21.20;92.50
47162;DHT22;32921;53.256;8.198;2023-09-19T13:38:37;21.10;93.50
47162;DHT22;32921;53.256;8.198;2023-09-19T13:41:02;20.90;92.40
47162;DHT22;32921;53.256;8.198;2023-09-19T13:43:28;20.60;93.60
47162;DHT22;32921;53.256;8.198;2023-09-19T13:45:54;20.30;94.10
47162;DHT22;32921;53.256;8.198;2023-09-19T13:48:20;20.40;94.30
47162;DHT22;32921;53.256;8.198;2023-09-19T13:50:48;20.30;94.40
47162;DHT22;32921;53.256;8.198;2023-09-19T13:53:14;20.10;94.20
47162;DHT22;32921;53.256;8.198;2023-09-19T13:55:39;20.00;96.20
47162;DHT22;32921;53.256;8.198;2023-09-19T13:58:05;20.10;97.10
47162;DHT22;32921;53.256;8.198;2023-09-19T14:00:32;20.10;94.90
47162;DHT22;32921;53.256;8.198;2023-09-19T14:03:00;20.00;96.20
47162;DHT22;32921;53.256;8.198;2023-09-19T14:05:26;19.80;96.70
47162;DHT22;32921;53.256;8.198;2023-09-19T14:07:52;19.60;97.10
47162;DHT22;32921;53.256;8.198;2023-09-19T14:10:18;19.40;98.70
47162;DHT22;32921;53.256;8.198;2023-09-19T14:12:47;19.20;99.40
47162;DHT22;32921;53.256;8.198;2023-09-19T14:15:13;19.10;99.90
47162;DHT22;32921;53.256;8.198;2023-09-19T14:17:39;19.00;99.90
47162;DHT22;32921;53.256;8.198;2023-09-19T14:20:08;19.10;99.70
47162;DHT22;32921;53.256;8.198;2023-09-19T14:22:35;19.20;99.90
47162;DHT22;32921;53.256;8.198;2023-09-19T14:25:02;19.30;99.90
47162;DHT22;32921;53.256;8.198;2023-09-19T14:27:28;19.50;99.90
47162;DHT22;32921;53.256;8.198;2023-09-19T14:29:53;19.60;99.90
47162;DHT22;32921;53.256;8.198;2023-09-19T14:32:19;19.50;99.90
47162;DHT22;32921;53.256;8.198;2023-09-19T14:34:45;19.40;99.90
47162;DHT22;32921;53.256;8.198;2023-09-19T14:37:11;19.40;99.90
47162;DHT22;32921;53.256;8.198;2023-09-19T14:39:37;19.30;99.90
47162;DHT22;32921;53.256;8.198;2023-09-19T14:42:05;19.30;99.90
47162;DHT22;32921;53.256;8.198;2023-09-19T14:44:30;19.30;99.90
47162;DHT22;32921;53.256;8.198;2023-09-19T14:46:56;19.10;99.90
47162;DHT22;32921;53.256;8.198;2023-09-19T14:49:21;18.90;99.90
47162;DHT22;32921;53.256;8.198;2023-09-19T14:51:47;18.90;99.90
47162;DHT22;32921;53.256;8.198;2023-09-19T14:54:13;18.90;99.90
47162;DHT22;32921;53.256;8.198;2023-09-19T14:56:42;18.80;99.90
47162;DHT22;32921;53.256;8.198;2023-09-19T14:59:07;18.80;99.90
47162;DHT22;32921;53.256;8.198;2023-09-19T15:01:36;18.80;99.90
47162;DHT22;32921;53.256;8.198;2023-09-19T15:04:01;18.90;99.90
47162;DHT22;32921;53.256;8.198;2023-09-19T15:06:27;18.90;99.90
47162;DHT22;32921;53.256;8.198;2023-09-19T15:08:53;18.90;99.90
47162;DHT22;32921;53.256;8.198;2023-09-19T15:11:19;19.00;99.90
47162;DHT22;32921;53.256;8.198;2023-09-19T15:13:46;19.20;99.90
47162;DHT22;32921;53.256;8.198;2023-09-19T15:16:13;19.40;99.90
47162;DHT22;32921;53.256;8.198;2023-09-19T15:18:40;19.60;99.90
47162;DHT22;32921;53.256;8.198;2023-09-19T15:21:09;19.60;99.90
47162;DHT22;32921;53.256;8.198;2023-09-19T15:23:36;19.80;99.90
47162;DHT22;32921;53.256;8.198;2023-09-19T15:26:13;19.60;99.90
47162;DHT22;32921;53.256;8.198;2023-09-19T15:28:42;19.50;99.90
47162;DHT22;32921;53.256;8.198;2023-09-19T15:31:10;19.40;99.90
47162;DHT22;32921;53.256;8.198;2023-09-19T15:33:36;19.30;99.90
47162;DHT22;32921;53.256;8.198;2023-09-19T15:36:06;19.40;99.90
47162;DHT22;32921;53.256;8.198;2023-09-19T15:39:04;19.30;99.90
47162;DHT22;32921;53.256;8.198;2023-09-19T15:41:36;19.20;99.90
47162;DHT22;32921;53.256;8.198;2023-09-19T15:44:12;19.10;99.90
47162;DHT22;32921;53.256;8.198;2023-09-19T15:46:37;19.00;99.90
47162;DHT22;32921;53.256;8.198;2023-09-19T15:49:03;19.00;99.90
47162;DHT22;32921;53.256;8.198;2023-09-19T15:51:29;18.90;99.90
47162;DHT22;32921;53.256;8.198;2023-09-19T15:53:55;18.90;99.90
47162;DHT22;32921;53.256;8.198;2023-09-19T15:56:22;18.90;99.90
47162;DHT22;32921;53.256;8.198;2023-09-19T15:58:52;18.90;99.90
47162;DHT22;32921;53.256;8.198;2023-09-19T16:01:19;18.90;99.90
47162;DHT22;32921;53.256;8.198;2023-09-19T16:03:49;19.00;99.90
47162;DHT22;32921;53.256;8.198;2023-09-19T16:06:17;19.00;99.90
47162;DHT22;32921;53.256;8.198;2023-09-19T16:08:45;18.90;99.90
47162;DHT22;32921;53.256;8.198;2023-09-19T16:11:11;18.80;99.90
47162;DHT22;32921;53.256;8.198;2023-09-19T16:13:37;18.80;99.90
47162;DHT22;32921;53.256;8.198;2023-09-19T16:16:03;18.80;99.90
47162;DHT22;32921;53.256;8.198;2023-09-19T16:18:29;18.70;99.90
47162;DHT22;32921;53.256;8.198;2023-09-19T16:21:02;18.70;99.90
47162;DHT22;32921;53.256;8.198;2023-09-19T16:23:28;18.70;99.90
47162;DHT22;32921;53.256;8.198;2023-09-19T16:26:11;18.70;99.90
47162;DHT22;32921;53.256;8.198;2023-09-19T16:28:39;18.70;99.90
47162;DHT22;32921;53.256;8.198;2023-09-19T16:31:06;18.70;99.90
47162;DHT22;32921;53.256;8.198;2023-09-19T16:33:37;18.70;99.90
47162;DHT22;32921;53.256;8.198;2023-09-19T16:36:14;18.70;99.90
47162;DHT22;32921;53.256;8.198;2023-09-19T16:38:42;18.60;99.90
47162;DHT22;32921;53.256;8.198;2023-09-19T16:41:08;18.60;99.90
47162;DHT22;32921;53.256;8.198;2023-09-19T16:43:34;18.60;99.90
47162;DHT22;32921;53.256;8.198;2023-09-19T16:46:08;18.60;99.90
47162;DHT22;32921;53.256;8.198;2023-09-19T16:48:38;18.60;99.90
47162;DHT22;32921;53.256;8.198;2023-09-19T16:51:09;18.60;99.90
47162;DHT22;32921;53.256;8.198;2023-09-19T16:53:36;18.60;99.90
47162;DHT22;32921;53.256;8.198;2023-09-19T16:56:06;18.50;99.90
47162;DHT22;32921;53.256;8.198;2023-09-19T16:58:37;18.50;99.90
47162;DHT22;32921;53.256;8.198;2023-09-19T17:01:06;18.50;99.90
47162;DHT22;32921;53.256;8.198;2023-09-19T17:03:35;18.50;99.90
47162;DHT22;32921;53.256;8.198;2023-09-19T17:06:01;18.50;99.90
47162;DHT22;32921;53.256;8.198;2023-09-19T17:08:28;18.50;99.90
47162;DHT22;32921;53.256;8.198;2023-09-19T17:11:10;18.50;99.90
47162;DHT22;32921;53.256;8.198;2023-09-19T17:13:38;18.50;99.90
47162;DHT22;32921;53.256;8.198;2023-09-19T17:16:11;18.40;99.90
47162;DHT22;32921;53.256;8.198;2023-09-19T17:18:38;18.40;99.90
47162;DHT22;32921;53.256;8.198;2023-09-19T17:21:05;18.40;99.90
47162;DHT22;32921;53.256;8.198;2023-09-19T17:23:36;18.40;99.90
47162;DHT22;32921;53.256;8.198;2023-09-19T17:26:06;18.40;99.90
47162;DHT22;32921;53.256;8.198;2023-09-19T17:28:33;18.40;99.90
47162;DHT22;32921;53.256;8.198;2023-09-19T17:31:00;18.40;99.90
47162;DHT22;32921;53.256;8.198;2023-09-19T17:33:27;18.40;99.90
47162;DHT22;32921;53.256;8.198;2023-09-19T17:36:04;18.40;99.90
47162;DHT22;32921;53.256;8.198;2023-09-19T17:38:32;18.30;99.90
47162;DHT22;32921;53.256;8.198;2023-09-19T17:41:01;18.30;99.90
47162;DHT22;32921;53.256;8.198;2023-09-19T17:43:28;18.30;99.90
47162;DHT22;32921;53.256;8.198;2023-09-19T17:45:54;18.40;99.90
47162;DHT22;32921;53.256;8.198;2023-09-19T17:48:19;18.40;99.90
47162;DHT22;32921;53.256;8.198;2023-09-19T17:50:45;18.40;99.90
47162;DHT22;32921;53.256;8.198;2023-09-19T17:53:12;18.40;99.90
47162;DHT22;32921;53.256;8.198;2023-09-19T17:55:37;18.30;99.90
47162;DHT22;32921;53.256;8.198;2023-09-19T17:58:04;18.30;99.90
47162;DHT22;32921;53.256;8.198;2023-09-19T18:00:31;18.30;99.90
47162;DHT22;32921;53.256;8.198;2023-09-19T18:03:01;18.30;99.90
47162;DHT22;32921;53.256;8.198;2023-09-19T18:05:28;18.40;99.90
47162;DHT22;32921;53.256;8.198;2023-09-19T18:07:54;18.30;99.90
47162;DHT22;32921;53.256;8.198;2023-09-19T18:10:19;18.30;99.90
47162;DHT22;32921;53.256;8.198;2023-09-19T18:12:45;18.30;99.90
47162;DHT22;32921;53.256;8.198;2023-09-19T18:15:12;18.30;99.90
47162;DHT22;32921;53.256;8.198;2023-09-19T18:17:38;18.20;99.90
47162;DHT22;32921;53.256;8.198;2023-09-19T18:20:03;18.30;99.90
47162;DHT22;32921;53.256;8.198;2023-09-19T18:22:35;18.30;99.90
47162;DHT22;32921;53.256;8.198;2023-09-19T18:25:01;18.20;99.90
47162;DHT22;32921;53.256;8.198;2023-09-19T18:27:26;18.20;99.90
47162;DHT22;32921;53.256;8.198;2023-09-19T18:29:56;18.20;99.90
47162;DHT22;32921;53.256;8.198;2023-09-19T18:32:21;18.10;99.90
47162;DHT22;32921;53.256;8.198;2023-09-19T18:34:47;18.10;99.90
47162;DHT22;32921;53.256;8.198;2023-09-19T18:37:13;18.10;99.90
47162;DHT22;32921;53.256;8.198;2023-09-19T18:39:39;18.20;99.90
47162;DHT22;32921;53.256;8.198;2023-09-19T18:42:05;18.10;99.90
47162;DHT22;32921;53.256;8.198;2023-09-19T18:44:30;18.10;99.90
47162;DHT22;32921;53.256;8.198;2023-09-19T18:46:56;18.10;99.90
47162;DHT22;32921;53.256;8.198;2023-09-19T18:49:22;18.10;99.90
47162;DHT22;32921;53.256;8.198;2023-09-19T18:51:47;18.00;99.90
47162;DHT22;32921;53.256;8.198;2023-09-19T18:54:13;18.00;99.90
47162;DHT22;32921;53.256;8.198;2023-09-19T18:56:42;18.00;99.90
47162;DHT22;32921;53.256;8.198;2023-09-19T18:59:09;18.10;99.90
47162;DHT22;32921;53.256;8.198;2023-09-19T19:01:38;18.00;99.90
47162;DHT22;32921;53.256;8.198;2023-09-19T19:04:04;18.00;99.90
47162;DHT22;32921;53.256;8.198;2023-09-19T19:06:30;18.00;99.90
47162;DHT22;32921;53.256;8.198;2023-09-19T19:08:55;18.00;99.90
47162;DHT22;32921;53.256;8.198;2023-09-19T19:11:21;18.00;99.90
47162;DHT22;32921;53.256;8.198;2023-09-19T19:13:51;18.00;99.90
47162;DHT22;32921;53.256;8.198;2023-09-19T19:16:16;18.00;99.90
47162;DHT22;32921;53.256;8.198;2023-09-19T19:18:42;18.00;99.90
47162;DHT22;32921;53.256;8.198;2023-09-19T19:21:08;18.00;99.90
47162;DHT22;32921;53.256;8.198;2023-09-19T19:23:35;18.00;99.90
47162;DHT22;32921;53.256;8.198;2023-09-19T19:26:02;18.00;99.90
47162;DHT22;32921;53.256;8.198;2023-09-19T19:28:32;18.00;99.90
47162;DHT22;32921;53.256;8.198;2023-09-19T19:30:58;18.00;99.90
47162;DHT22;32921;53.256;8.198;2023-09-19T19:33:24;18.00;99.90
47162;DHT22;32921;53.256;8.198;2023-09-19T19:35:50;18.00;99.90
47162;DHT22;32921;53.256;8.198;2023-09-19T19:38:16;17.90;99.90
47162;DHT22;32921;53.256;8.198;2023-09-19T19:40:43;18.00;99.90
47162;DHT22;32921;53.256;8.198;2023-09-19T19:43:09;18.00;99.90
47162;DHT22;32921;53.256;8.198;2023-09-19T19:45:34;17.90;99.90
47162;DHT22;32921;53.256;8.198;2023-09-19T19:48:00;17.80;99.90
47162;DHT22;32921;53.256;8.198;2023-09-19T19:50:29;17.70;99.90
47162;DHT22;32921;53.256;8.198;2023-09-19T19:52:55;17.50;99.90
47162;DHT22;32921;53.256;8.198;2023-09-19T19:55:23;17.40;99.90
47162;DHT22;32921;53.256;8.198;2023-09-19T19:57:55;17.20;99.90
47162;DHT22;32921;53.256;8.198;2023-09-19T20:00:21;17.00;99.90
47162;DHT22;32921;53.256;8.198;2023-09-19T20:02:48;16.90;99.90
47162;DHT22;32921;53.256;8.198;2023-09-19T20:05:18;16.90;99.90
47162;DHT22;32921;53.256;8.198;2023-09-19T20:07:44;16.80;99.90
47162;DHT22;32921;53.256;8.198;2023-09-19T20:10:11;16.70;99.90
47162;DHT22;32921;53.256;8.198;2023-09-19T20:12:41;16.70;99.90
47162;DHT22;32921;53.256;8.198;2023-09-19T20:15:07;16.60;99.90
47162;DHT22;32921;53.256;8.198;2023-09-19T20:17:36;16.60;99.90
47162;DHT22;32921;53.256;8.198;2023-09-19T20:20:01;16.50;99.90
47162;DHT22;32921;53.256;8.198;2023-09-19T20:22:27;16.50;99.90
47162;DHT22;32921;53.256;8.198;2023-09-19T20:24:53;16.50;99.90
47162;DHT22;32921;53.256;8.198;2023-09-19T20:27:19;16.50;99.90
47162;DHT22;32921;53.256;8.198;2023-09-19T20:29:45;16.40;99.90
47162;DHT22;32921;53.256;8.198;2023-09-19T20:32:10;16.40;99.90
47162;DHT22;32921;53.256;8.198;2023-09-19T20:34:36;16.40;99.90
47162;DHT22;32921;53.256;8.198;2023-09-19T20:37:02;16.40;99.90
47162;DHT22;32921;53.256;8.198;2023-09-19T20:39:28;16.30;99.90
47162;DHT22;32921;53.256;8.198;2023-09-19T20:41:54;16.30;99.90
47162;DHT22;32921;53.256;8.198;2023-09-19T20:44:19;16.20;99.90
47162;DHT22;32921;53.256;8.198;2023-09-19T20:46:45;16.20;99.90
47162;DHT22;32921;53.256;8.198;2023-09-19T20:49:11;16.20;99.90
47162;DHT22;32921;53.256;8.198;2023-09-19T20:51:39;16.10;99.90
47162;DHT22;32921;53.256;8.198;2023-09-19T20:54:05;16.10;99.90
47162;DHT22;32921;53.256;8.198;2023-09-19T20:56:34;16.00;99.90
47162;DHT22;32921;53.256;8.198;2023-09-19T20:59:00;16.00;99.90
47162;DHT22;32921;53.256;8.198;2023-09-19T21:01:27;16.00;99.90
47162;DHT22;32921;53.256;8.198;2023-09-19T21:03:54;15.90;99.90
47162;DHT22;32921;53.256;8.198;2023-09-19T21:06:21;15.90;99.90
47162;DHT22;32921;53.256;8.198;2023-09-19T21:08:46;15.90;99.90
47162;DHT22;32921;53.256;8.198;2023-09-19T21:11:17;15.90;99.90
47162;DHT22;32921;53.256;8.198;2023-09-19T21:13:44;15.80;99.90
47162;DHT22;32921;53.256;8.198;2023-09-19T21:16:11;15.90;99.90
47162;DHT22;32921;53.256;8.198;2023-09-19T21:18:38;15.90;99.90
47162;DHT22;32921;53.256;8.198;2023-09-19T21:21:05;15.90;99.90
47162;DHT22;32921;53.256;8.198;2023-09-19T21:23:36;15.90;99.90
47162;DHT22;32921;53.256;8.198;2023-09-19T21:26:02;15.80;99.90
47162;DHT22;32921;53.256;8.198;2023-09-19T21:28:28;15.80;99.90
47162;DHT22;32921;53.256;8.198;2023-09-19T21:31:01;15.90;99.90
47162;DHT22;32921;53.256;8.198;2023-09-19T21:33:30;15.90;99.90
47162;DHT22;32921;53.256;8.198;2023-09-19T21:35:56;15.90;99.90
47162;DHT22;32921;53.256;8.198;2023-09-19T21:38:22;15.80;99.90
47162;DHT22;32921;53.256;8.198;2023-09-19T21:40:47;15.90;99.90
47162;DHT22;32921;53.256;8.198;2023-09-19T21:43:13;15.90;99.90
47162;DHT22;32921;53.256;8.198;2023-09-19T21:45:39;15.90;99.90
47162;DHT22;32921;53.256;8.198;2023-09-19T21:48:05;15.90;99.90